^^
Station Historical Data
Daily Summary for January 24, 2017 Units:  Metric    English   Both
« Previous Day
Next Day »
Daily Weekly Monthly Yearly Custom
  High: Low: Average:
Temperature: 32.8 °C 19.1 °C 25.8 °C
Dew Point: 18.3 °C 5.4 °C 12.6 °C
Humidity: 72% 18% 46%
Wind Speed: 38.5km/h 0km/h 11.3km/h
Wind Gust: 41.8km/h - -
Wind- - South
Pressure: 1011.1 hPa 1005.6 hPa -
Precipitation: 0 mm    
Historical Graphs
 
 
Tabular Data for January 24, 2017
Time Temperature Dew Point Pressure Wind Wind Speed Wind Gust Humidity Rainfall Rate (Hourly) solar Conditions
00:17 24.1 °C 17.8 °C 1008.4 hPa Calm     68% 0 mm 0.0 W/m2
00:19 24.1 °C 17.8 °C 1008.4 hPa Calm     68% 0 mm 0.0 W/m2
01:20 23.6 °C 18.3 °C 1007.7 hPa Calm     72% 0 mm 0.0 W/m2
01:24 23.6 °C 18.3 °C 1008 hPa Calm     72% 0 mm 0.0 W/m2
01:36 23.6 °C 18.3 °C 1007.7 hPa Calm     72% 0 mm 0.0 W/m2
01:56 23.1 °C 14.9 °C 1007.7 hPa Calm     60% 0 mm 0.0 W/m2
02:07 22.8 °C 15.1 °C 1007.7 hPa Calm     62% 0 mm 0.0 W/m2
02:21 22.5 °C 15.8 °C 1007.3 hPa Calm     66% 0 mm 0.0 W/m2
02:26 22.4 °C 15 °C 1007.7 hPa Calm     63% 0 mm 0.0 W/m2
03:23 22.2 °C 14.8 °C 1007.7 hPa Calm     63% 0 mm 0.0 W/m2
03:27 22.2 °C 15.1 °C 1007.7 hPa Calm     64% 0 mm 0.0 W/m2
03:49 21.9 °C 14.3 °C 1007.3 hPa Calm     62% 0 mm 0.0 W/m2
03:53 21.9 °C 14.5 °C 1007.3 hPa Calm     63% 0 mm 0.0 W/m2
04:35 21.5 °C 14.9 °C 1007 hPa Calm     66% 0 mm 0.0 W/m2
05:05 21.2 °C 14.4 °C 1007.3 hPa Calm     65% 0 mm 0.0 W/m2
05:10 21.1 °C 14.5 °C 1007.3 hPa Calm     66% 0 mm 0.0 W/m2
05:52 20.6 °C 15.2 °C 1007.7 hPa Calm     71% 0 mm 0.0 W/m2
05:56 20.4 °C 15.2 °C 1008 hPa Calm     72% 0 mm 0.0 W/m2
08:00 22.2 °C 14.6 °C 1008.7 hPa Calm     62% 0 mm 323.0 W/m2
08:16 22.6 °C 13.4 °C 1008.4 hPa Calm   8 km/h 56% 0 mm 130.0 W/m2
08:33 22.7 °C 14 °C 1008.7 hPa Calm     58% 0 mm 394.0 W/m2
08:41 23.1 °C 14.4 °C 1008.4 hPa East 6.4 km/h 8 km/h 58% 0 mm 446.0 W/m2
08:56 23.6 °C 14 °C 1008.7 hPa ESE 4.7 km/h 11.3 km/h 55% 0 mm 494.0 W/m2
09:18 24.2 °C 14 °C 1008.7 hPa Calm     53% 0 mm 545.0 W/m2
09:27 24.7 °C 14.5 °C 1008.7 hPa Calm     53% 0 mm 598.0 W/m2
09:42 25.2 °C 14.6 °C 1008.7 hPa Calm   9.7 km/h 52% 0 mm 642.0 W/m2
09:52 25.4 °C 14.8 °C 1008.7 hPa Calm     52% 0 mm 670.0 W/m2
10:02 25.6 °C 14.7 °C 1008.7 hPa ESE 9.7 km/h 11.3 km/h 51% 0 mm 700.0 W/m2
10:07 25.7 °C 15.1 °C 1008.7 hPa ESE 6.4 km/h 11.3 km/h 52% 0 mm 715.0 W/m2
11:41 28.1 °C 15.7 °C 1008.4 hPa Calm     47% 0 mm 911.0 W/m2
11:47 28.2 °C 15.8 °C 1008.4 hPa Calm     47% 0 mm 918.0 W/m2
11:49 28.4 °C 16 °C 1008.4 hPa Calm     47% 0 mm 925.0 W/m2
11:58 28.6 °C 16.5 °C 1008 hPa Calm     48% 0 mm 933.0 W/m2
12:00 28.8 °C 15 °C 1008 hPa Calm   8 km/h 43% 0 mm 937.0 W/m2
12:31 29.4 °C 13.6 °C 1007.7 hPa SE 6.4 km/h 9.7 km/h 38% 0 mm 962.0 W/m2
12:35 29.6 °C 14.6 °C 1007.7 hPa Calm   14.5 km/h 40% 0 mm 962.0 W/m2
12:44 29.8 °C 13.5 °C 1007.7 hPa Calm   8 km/h 37% 0 mm 965.0 W/m2
12:46 30 °C 13.3 °C 1007.7 hPa SE 11.1 km/h 12.9 km/h 36% 0 mm 967.0 W/m2
12:51 30.2 °C 12.1 °C 1007.7 hPa SE 9.7 km/h 19.3 km/h 33% 0 mm 969.0 W/m2
13:01 30.3 °C 12.2 °C 1007.3 hPa SE 6.4 km/h 11.3 km/h 33% 0 mm 970.0 W/m2
13:11 30.6 °C 11.5 °C 1007.3 hPa Calm   16.1 km/h 31% 0 mm 969.0 W/m2
13:28 30.6 °C 12.5 °C 1007.3 hPa Calm   11.3 km/h 33% 0 mm 970.0 W/m2
13:43 30.7 °C 10.6 °C 1007 hPa SSE 13 km/h 13 km/h 29% 0 mm 965.0 W/m2
13:57 31.3 °C 11.1 °C 1006.7 hPa Calm   14.5 km/h 29% 0 mm 954.0 W/m2
14:02 31.4 °C 11.7 °C 1006.7 hPa SSE 6.4 km/h 8 km/h 30% 0 mm 944.0 W/m2
14:22 31.6 °C 9.2 °C 1006.3 hPa SSE 13 km/h 17.7 km/h 25% 0 mm 930.0 W/m2
14:32 31.9 °C 8.2 °C 1006.3 hPa South 13 km/h 20.9 km/h 23% 0 mm 914.0 W/m2
14:37 32.2 °C 7.1 °C 1006.3 hPa South 14.3 km/h 17.7 km/h 21% 0 mm 900.0 W/m2
14:52 32.4 °C 7.3 °C 1006 hPa South 13 km/h 17.7 km/h 21% 0 mm 879.0 W/m2
15:07 32.8 °C 5.4 °C 1006 hPa South 14.3 km/h 24.1 km/h 18% 0 mm 851.0 W/m2
15:17 32.8 °C 6.1 °C 1006 hPa South 16.3 km/h 32.2 km/h 19% 0 mm 826.0 W/m2
15:30 32.6 °C 7.4 °C 1005.6 hPa SSW 17.7 km/h 27.4 km/h 21% 0 mm 803.0 W/m2
17:07 29.7 °C 11.7 °C 1006 hPa SW 38.5 km/h 38.6 km/h 33% 0 mm 494.0 W/m2
17:22 29.5 °C 11.5 °C 1006 hPa SSW 17.7 km/h 35.4 km/h 33% 0 mm 445.0 W/m2
17:37 29.3 °C 11.4 °C 1006 hPa SSW 27.4 km/h 35.4 km/h 33% 0 mm 388.0 W/m2
17:52 28.8 °C 11.4 °C 1006 hPa SSW 25.9 km/h 37 km/h 34% 0 mm 336.0 W/m2
18:07 29 °C 12 °C 1006.3 hPa South 38.5 km/h 38.6 km/h 35% 0 mm 281.0 W/m2
18:22 28.3 °C 11.4 °C 1006.3 hPa SSW 25.9 km/h 41.8 km/h 35% 0 mm 221.0 W/m2
18:38 27.8 °C 11.4 °C 1006.7 hPa SSW 24.1 km/h 40.2 km/h 36% 0 mm 162.0 W/m2
18:53 27.4 °C 11.8 °C 1007 hPa SSW 32 km/h 35.4 km/h 38% 0 mm 100.0 W/m2
19:08 26.8 °C 12.4 °C 1007.3 hPa SSW 24.1 km/h 33.8 km/h 41% 0 mm 49.0 W/m2
19:23 26.2 °C 11.9 °C 1007.3 hPa SSW 27.4 km/h 32.2 km/h 41% 0 mm 18.0 W/m2
19:29 26.2 °C 11.9 °C 1007.3 hPa SSW 27.4 km/h 32.2 km/h 41% 0 mm 18.0 W/m2
19:44 25.9 °C 11.3 °C 1007.7 hPa South 24.1 km/h 37 km/h 40% 0 mm 9.0 W/m2
19:59 25.4 °C 10.8 °C 1008 hPa South 32 km/h 40.2 km/h 40% 0 mm 0.0 W/m2
20:14 24.9 °C 10 °C 1008.4 hPa SSW 38.5 km/h 38.6 km/h 39% 0 mm 0.0 W/m2
20:29 24.1 °C 9.3 °C 1008.7 hPa SSE 32 km/h 41.8 km/h 39% 0 mm 0.0 W/m2
20:38 23.2 °C 8.5 °C 1009 hPa South 22.7 km/h 38.6 km/h 39% 0 mm 0.0 W/m2
20:59 22.7 °C 8.4 °C 1009.4 hPa South 22.7 km/h 33.8 km/h 40% 0 mm 0.0 W/m2
21:08 21.9 °C 9.1 °C 1010 hPa South 27.4 km/h 35.4 km/h 44% 0 mm 0.0 W/m2
21:29 21.5 °C 9.7 °C 1010 hPa South 22.7 km/h 29 km/h 47% 0 mm 0.0 W/m2
21:38 21 °C 9.3 °C 1010.4 hPa South 25.9 km/h 33.8 km/h 47% 0 mm 0.0 W/m2
21:58 20.7 °C 9.3 °C 1010.4 hPa South 24.1 km/h 32.2 km/h 48% 0 mm 0.0 W/m2
22:03 20.4 °C 9 °C 1010.7 hPa South 28.8 km/h 35.4 km/h 48% 0 mm 0.0 W/m2
22:13 20.2 °C 9.1 °C 1010.7 hPa South 17.7 km/h 27.4 km/h 49% 0 mm 0.0 W/m2
22:35 19.8 °C 8.5 °C 1010.7 hPa SSW 22.7 km/h 33.8 km/h 48% 0 mm 0.0 W/m2
22:43 19.3 °C 8.9 °C 1010.7 hPa SW 24.1 km/h 33.8 km/h 51% 0 mm 0.0 W/m2
22:58 19.1 °C 9.6 °C 1011.1 hPa SSW 27.4 km/h 30.6 km/h 54% 0 mm 0.0 W/m2
Canyon Roadhouse, Fishriver Canyon, Namibia
Compliments of Weather Underground - 2 mb